createdAt,value
2022-12-08T00:02:02.323Z,8.93
2022-12-08T00:04:50.646Z,9.48
2022-12-08T00:07:36.153Z,9.10
2022-12-08T00:10:25.181Z,9.07
2022-12-08T00:12:52.721Z,8.98
2022-12-08T00:15:22.488Z,9.05
2022-12-08T00:17:50.545Z,9.07
2022-12-08T00:20:18.910Z,8.45
2022-12-08T00:22:47.084Z,9.15
2022-12-08T00:25:15.797Z,9.35
2022-12-08T00:27:43.880Z,10.05
2022-12-08T00:30:12.570Z,9.23
2022-12-08T00:32:42.009Z,9.07
2022-12-08T00:35:10.671Z,8.55
2022-12-08T00:37:38.823Z,8.88
2022-12-08T00:40:08.769Z,8.68
2022-12-08T00:42:36.895Z,8.32
2022-12-08T00:45:05.512Z,8.40
2022-12-08T00:47:33.654Z,7.22
2022-12-08T00:50:06.186Z,7.20
2022-12-08T00:52:34.744Z,7.90
2022-12-08T00:55:03.133Z,7.35
2022-12-08T00:57:31.518Z,8.18
2022-12-08T00:59:59.605Z,7.63
2022-12-08T01:02:27.716Z,8.13
2022-12-08T01:04:55.751Z,7.85
2022-12-08T01:07:25.243Z,7.60
2022-12-08T01:09:53.722Z,7.75
2022-12-08T01:12:21.770Z,8.10
2022-12-08T01:14:49.888Z,7.78
2022-12-08T01:17:17.968Z,7.30
2022-12-08T01:19:46.468Z,7.45
2022-12-08T01:22:14.586Z,6.85
2022-12-08T01:24:44.093Z,7.18
2022-12-08T01:27:12.111Z,7.32
2022-12-08T01:29:40.265Z,7.53
2022-12-08T01:32:09.722Z,8.27
2022-12-08T01:34:37.781Z,8.10
2022-12-08T01:37:05.931Z,8.32
2022-12-08T01:39:36.533Z,8.73
2022-12-08T01:42:06.231Z,8.18
2022-12-08T01:44:58.544Z,8.93
2022-12-08T01:47:30.902Z,9.77
2022-12-08T01:49:59.298Z,9.88
2022-12-08T01:52:33.637Z,10.00
2022-12-08T01:55:05.279Z,10.13
2022-12-08T01:57:38.720Z,11.33
2022-12-08T02:00:09.099Z,12.18
2022-12-08T02:02:47.717Z,12.48
2022-12-08T02:05:17.494Z,13.15
2022-12-08T02:07:46.072Z,13.27
2022-12-08T02:10:18.889Z,12.98
2022-12-08T02:12:49.365Z,13.05
2022-12-08T02:15:17.682Z,12.93
2022-12-08T02:18:01.110Z,12.57
2022-12-08T02:20:47.179Z,12.68
2022-12-08T02:23:25.193Z,12.48
2022-12-08T02:26:31.393Z,12.13
2022-12-08T02:29:33.179Z,12.27
2022-12-08T02:32:22.114Z,12.55
2022-12-08T02:34:57.272Z,12.55
2022-12-08T02:37:33.796Z,13.05
2022-12-08T02:40:08.334Z,12.50
2022-12-08T02:42:41.224Z,12.80
2022-12-08T02:45:15.444Z,11.55
2022-12-08T02:47:44.621Z,13.35
2022-12-08T02:50:14.335Z,12.05
2022-12-08T02:52:44.815Z,11.50
2022-12-08T02:55:22.037Z,10.75
2022-12-08T02:58:42.442Z,10.50
2022-12-08T03:01:28.290Z,10.80
2022-12-08T03:04:06.463Z,9.77
2022-12-08T03:06:46.502Z,9.25
2022-12-08T03:09:24.245Z,9.00
2022-12-08T03:11:57.078Z,8.80
2022-12-08T03:14:26.119Z,7.88
2022-12-08T03:16:58.273Z,8.52
2022-12-08T03:19:29.843Z,8.43
2022-12-08T03:22:03.407Z,7.88
2022-12-08T03:24:34.563Z,8.25
2022-12-08T03:27:05.256Z,8.05
2022-12-08T03:29:34.305Z,8.05
2022-12-08T03:32:09.327Z,7.78
2022-12-08T03:34:41.364Z,7.82
2022-12-08T03:37:11.485Z,7.55
2022-12-08T03:39:39.609Z,8.40
2022-12-08T03:42:10.029Z,8.00
2022-12-08T03:44:38.391Z,8.95
2022-12-08T03:47:06.780Z,8.77
2022-12-08T03:49:34.893Z,8.65
2022-12-08T03:52:03.032Z,8.80
2022-12-08T03:54:32.526Z,8.98
2022-12-08T03:57:00.601Z,8.38
2022-12-08T03:59:28.717Z,8.38
2022-12-08T04:01:56.855Z,8.02
2022-12-08T04:04:25.047Z,7.70
2022-12-08T04:06:53.551Z,6.85
2022-12-08T04:09:21.705Z,7.13
2022-12-08T04:11:51.174Z,6.80
2022-12-08T04:14:19.255Z,6.10
2022-12-08T04:16:47.805Z,6.10
2022-12-08T04:19:16.190Z,6.35
2022-12-08T04:21:44.381Z,5.95
2022-12-08T04:24:13.034Z,5.63
2022-12-08T04:26:41.265Z,5.65
2022-12-08T04:29:11.145Z,5.47
2022-12-08T04:31:39.525Z,4.93
2022-12-08T04:34:08.173Z,4.90
2022-12-08T04:36:36.499Z,4.70
2022-12-08T04:39:05.015Z,4.43
2022-12-08T04:41:33.645Z,4.00
2022-12-08T04:44:01.914Z,3.85
2022-12-08T04:46:31.766Z,4.20
2022-12-08T04:49:00.080Z,3.90
2022-12-08T04:51:28.443Z,4.13
2022-12-08T04:53:59.078Z,4.20
2022-12-08T04:56:27.182Z,4.22
2022-12-08T04:58:55.236Z,4.85
2022-12-08T05:01:25.993Z,5.30
2022-12-08T05:03:55.509Z,4.70
2022-12-08T05:06:24.475Z,4.13
2022-12-08T05:08:52.602Z,4.50
2022-12-08T05:11:20.728Z,4.55
2022-12-08T05:13:49.032Z,4.00
2022-12-08T05:16:17.361Z,3.70
2022-12-08T05:18:45.788Z,4.28
2022-12-08T05:21:16.065Z,4.32
2022-12-08T05:23:44.287Z,4.88
2022-12-08T05:26:14.874Z,4.72
2022-12-08T05:28:43.747Z,4.53
2022-12-08T05:31:12.709Z,4.93
2022-12-08T05:33:41.297Z,5.35
2022-12-08T05:36:09.753Z,5.10
2022-12-08T05:38:39.296Z,4.63
2022-12-08T05:41:07.577Z,5.57
2022-12-08T05:43:35.634Z,4.95
2022-12-08T05:46:03.974Z,5.00
2022-12-08T05:48:32.478Z,5.22
2022-12-08T05:51:01.092Z,5.47
2022-12-08T05:53:29.145Z,5.18
2022-12-08T05:55:58.678Z,5.28
2022-12-08T05:58:26.797Z,4.13
2022-12-08T06:00:54.817Z,4.60
2022-12-08T06:03:23.377Z,4.15
2022-12-08T06:05:51.565Z,3.45
2022-12-08T06:08:19.617Z,3.35
2022-12-08T06:10:48.095Z,2.70
2022-12-08T06:13:17.596Z,2.33
2022-12-08T06:15:45.626Z,1.90
2022-12-08T06:18:13.638Z,1.98
2022-12-08T06:20:41.674Z,1.50
2022-12-08T06:23:09.807Z,1.55
2022-12-08T06:25:37.868Z,1.63
2022-12-08T06:28:07.159Z,1.50
2022-12-08T06:30:36.865Z,0.90
2022-12-08T06:33:04.971Z,1.10
2022-12-08T06:35:33.055Z,1.05
2022-12-08T06:38:01.201Z,1.23
2022-12-08T06:40:29.270Z,1.10
2022-12-08T06:42:57.425Z,1.42
2022-12-08T06:45:25.540Z,1.25
2022-12-08T06:47:57.335Z,1.38
2022-12-08T06:50:25.835Z,1.20
2022-12-08T06:53:04.507Z,1.88
2022-12-08T06:58:21.965Z,1.77
2022-12-08T07:00:50.133Z,1.60
2022-12-08T07:03:19.966Z,2.15
2022-12-08T07:05:48.090Z,1.90
2022-12-08T07:08:16.910Z,2.50
2022-12-08T07:10:45.018Z,2.53
2022-12-08T07:13:13.081Z,2.47
2022-12-08T07:15:41.162Z,2.72
2022-12-08T07:18:09.313Z,2.50
2022-12-08T07:20:39.170Z,2.47
2022-12-08T07:23:07.377Z,2.22
2022-12-08T07:25:35.355Z,2.50
2022-12-08T07:28:09.519Z,3.83
2022-12-08T07:30:37.964Z,3.70
2022-12-08T07:33:06.767Z,2.20
2022-12-08T07:35:35.444Z,1.83
2022-12-08T07:38:05.121Z,1.90
2022-12-08T07:40:33.244Z,1.83
2022-12-08T07:43:01.339Z,2.15
2022-12-08T07:45:31.913Z,2.20
2022-12-08T07:48:00.399Z,2.42
2022-12-08T07:50:28.884Z,2.38
2022-12-08T07:52:57.305Z,2.28
2022-12-08T07:55:27.118Z,2.60
2022-12-08T07:57:55.512Z,2.20
2022-12-08T08:00:23.921Z,2.13
2022-12-08T08:02:52.445Z,2.25
2022-12-08T08:05:21.203Z,2.08
2022-12-08T08:07:49.613Z,2.00
2022-12-08T08:10:17.848Z,1.90
2022-12-08T08:12:47.765Z,1.63
2022-12-08T08:15:17.511Z,1.73
2022-12-08T08:17:46.302Z,1.60
2022-12-08T08:20:15.522Z,1.50
2022-12-08T08:22:43.624Z,1.45
2022-12-08T08:25:11.934Z,1.27
2022-12-08T08:27:40.183Z,1.38
2022-12-08T08:30:19.623Z,1.40
2022-12-08T08:32:49.253Z,1.65
2022-12-08T08:35:18.599Z,1.55
2022-12-08T08:37:49.265Z,1.30
2022-12-08T08:40:18.696Z,1.60
2022-12-08T08:42:47.222Z,1.17
2022-12-08T08:45:17.309Z,1.38
2022-12-08T08:47:45.408Z,1.75
2022-12-08T08:50:13.859Z,1.30
2022-12-08T08:52:41.891Z,1.40
2022-12-08T08:55:10.679Z,2.10
2022-12-08T08:57:39.077Z,1.52
2022-12-08T09:00:10.192Z,1.65
2022-12-08T09:02:40.077Z,0.90
2022-12-08T09:05:08.877Z,1.40
2022-12-08T09:07:37.146Z,1.23
2022-12-08T09:10:07.298Z,1.10
2022-12-08T09:12:35.590Z,1.25
2022-12-08T09:15:03.700Z,1.35
2022-12-08T09:17:31.758Z,1.52
2022-12-08T09:20:03.401Z,1.48
2022-12-08T09:22:31.783Z,1.60
2022-12-08T09:24:59.849Z,1.33
2022-12-08T09:27:28.113Z,1.40
2022-12-08T09:29:56.541Z,2.05
2022-12-08T09:32:25.068Z,1.40
2022-12-08T09:34:54.351Z,1.65
2022-12-08T09:37:24.184Z,1.92
2022-12-08T09:39:52.272Z,1.95
2022-12-08T09:42:31.893Z,2.92
2022-12-08T09:45:06.891Z,2.20
2022-12-08T09:47:41.078Z,2.03
2022-12-08T09:50:17.243Z,2.08
2022-12-08T09:52:54.335Z,2.33
2022-12-08T09:55:26.521Z,1.88
2022-12-08T09:58:02.240Z,2.35
2022-12-08T10:00:31.038Z,2.60
2022-12-08T10:03:00.227Z,2.47
2022-12-08T10:05:31.918Z,2.67
2022-12-08T10:08:09.547Z,2.20
2022-12-08T10:10:43.075Z,2.25
2022-12-08T10:13:20.644Z,2.17
2022-12-08T10:15:58.979Z,1.90
2022-12-08T10:18:30.717Z,2.00
2022-12-08T10:21:15.942Z,1.83
2022-12-08T10:23:47.993Z,1.85
2022-12-08T10:26:17.848Z,2.33
2022-12-08T10:28:46.679Z,1.95
2022-12-08T10:31:17.756Z,1.52
2022-12-08T10:33:50.685Z,1.50
2022-12-08T10:36:18.801Z,1.42
2022-12-08T10:38:48.367Z,1.70
2022-12-08T10:41:18.254Z,1.25
2022-12-08T10:43:49.966Z,1.10
2022-12-08T10:46:21.075Z,1.40
2022-12-08T10:48:51.491Z,1.15
2022-12-08T10:51:29.998Z,1.20
2022-12-08T10:53:59.606Z,1.40
2022-12-08T10:56:29.814Z,1.50
2022-12-08T10:59:15.229Z,1.67
2022-12-08T11:01:47.169Z,1.65
2022-12-08T11:04:19.868Z,1.40
2022-12-08T11:06:49.362Z,1.50
2022-12-08T11:09:46.760Z,1.63
2022-12-08T11:12:16.699Z,1.52
2022-12-08T11:14:51.671Z,1.70
2022-12-08T11:17:27.410Z,1.77
2022-12-08T11:20:00.673Z,1.88
2022-12-08T11:22:32.326Z,1.90
2022-12-08T11:25:12.084Z,2.00
2022-12-08T11:27:44.433Z,2.22
2022-12-08T11:30:17.446Z,2.20
2022-12-08T11:32:48.155Z,2.60
2022-12-08T11:35:22.673Z,2.85
2022-12-08T11:37:51.179Z,2.65
2022-12-08T11:40:27.597Z,2.35
2022-12-08T11:43:07.530Z,3.13
2022-12-08T11:45:37.308Z,3.00
2022-12-08T11:48:12.555Z,3.03
2022-12-08T11:50:46.552Z,3.42
2022-12-08T11:53:26.127Z,3.30
2022-12-08T11:55:59.564Z,3.00
2022-12-08T11:58:36.078Z,3.30
2022-12-08T12:01:04.335Z,3.50
2022-12-08T12:03:37.963Z,3.47
2022-12-08T12:06:53.757Z,3.40
2022-12-08T12:09:35.028Z,3.25
2022-12-08T12:12:20.015Z,3.63
2022-12-08T12:15:14.419Z,3.28
2022-12-08T12:17:47.154Z,3.40
2022-12-08T12:20:21.729Z,3.22
2022-12-08T12:22:53.611Z,3.17
2022-12-08T12:25:24.326Z,2.95
2022-12-08T12:28:02.097Z,3.05
2022-12-08T12:30:49.928Z,3.08
2022-12-08T12:33:19.557Z,2.95
2022-12-08T12:35:49.525Z,2.40
2022-12-08T12:38:43.075Z,2.70
2022-12-08T12:41:18.675Z,2.80
2022-12-08T12:44:18.668Z,2.50
2022-12-08T12:47:00.119Z,2.92
2022-12-08T12:49:51.223Z,2.70
2022-12-08T12:52:48.322Z,2.45
2022-12-08T12:55:56.469Z,1.90
2022-12-08T12:58:43.571Z,1.95
2022-12-08T13:01:57.295Z,2.10
2022-12-08T13:04:36.280Z,2.47
2022-12-08T13:07:05.249Z,2.40
2022-12-08T13:09:38.025Z,1.90
2022-12-08T13:12:12.472Z,1.48
2022-12-08T13:14:48.538Z,1.20
2022-12-08T13:17:26.792Z,1.25
2022-12-08T13:19:59.569Z,1.30
2022-12-08T13:23:02.074Z,1.17
2022-12-08T13:25:52.640Z,0.95
2022-12-08T13:28:29.945Z,0.88
2022-12-08T13:31:00.167Z,0.85
2022-12-08T13:33:34.097Z,1.05
2022-12-08T13:36:14.356Z,0.90
2022-12-08T13:38:46.515Z,1.00
2022-12-08T13:41:22.474Z,1.00
2022-12-08T13:44:50.379Z,1.33
2022-12-08T13:47:24.522Z,1.25
2022-12-08T13:51:23.636Z,1.50
2022-12-08T13:58:38.722Z,1.60
2022-12-08T14:01:12.133Z,1.38
2022-12-08T14:04:12.740Z,1.40
2022-12-08T14:06:38.968Z,1.50
2022-12-08T14:09:12.989Z,1.58
2022-12-08T14:11:44.024Z,1.40
2022-12-08T14:14:32.591Z,1.20
2022-12-08T14:17:03.476Z,1.45
2022-12-08T14:19:34.601Z,1.40
2022-12-08T14:22:07.049Z,1.40
2022-12-08T14:24:37.282Z,1.40
2022-12-08T14:27:07.663Z,1.27
2022-12-08T14:29:42.896Z,1.42
2022-12-08T14:32:27.170Z,1.88
2022-12-08T14:35:21.882Z,1.83
2022-12-08T14:37:56.790Z,2.30
2022-12-08T14:40:48.760Z,2.10
2022-12-08T14:43:27.260Z,2.60
2022-12-08T14:46:02.869Z,2.60
2022-12-08T14:48:44.731Z,2.65
2022-12-08T14:51:25.409Z,2.07
2022-12-08T14:54:00.041Z,2.70
2022-12-08T14:56:38.061Z,2.90
2022-12-08T14:59:12.615Z,2.90
2022-12-08T15:01:42.938Z,3.00
2022-12-08T15:04:19.194Z,3.85
2022-12-08T15:06:52.666Z,3.00
2022-12-08T15:09:32.012Z,2.70
2022-12-08T15:12:06.585Z,2.60
2022-12-08T15:14:37.389Z,2.35
2022-12-08T15:17:37.044Z,2.90
2022-12-08T15:20:09.266Z,2.53
2022-12-08T15:22:38.268Z,2.78
2022-12-08T15:25:13.780Z,3.00
2022-12-08T15:27:50.280Z,2.80
2022-12-08T15:30:19.337Z,3.13
2022-12-08T15:32:47.421Z,3.20
2022-12-08T15:35:16.339Z,3.92
2022-12-08T15:37:44.787Z,3.67
2022-12-08T15:40:18.893Z,3.72
2022-12-08T15:42:49.018Z,4.07
2022-12-08T15:45:18.448Z,4.00
2022-12-08T15:47:47.054Z,4.22
2022-12-08T15:50:21.363Z,4.32
2022-12-08T15:52:50.023Z,4.38
2022-12-08T15:55:20.125Z,4.55
2022-12-08T16:00:56.546Z,4.22
2022-12-08T16:04:13.900Z,4.22
2022-12-08T16:09:14.941Z,4.90
2022-12-08T16:12:07.240Z,4.80
2022-12-08T16:17:25.857Z,7.25
2022-12-08T16:19:56.661Z,7.88
2022-12-08T16:25:19.200Z,7.45
2022-12-08T16:28:01.289Z,7.72
2022-12-08T16:30:31.218Z,7.15
2022-12-08T16:32:59.801Z,7.15
2022-12-08T16:35:28.168Z,7.55
2022-12-08T16:37:56.547Z,7.47
2022-12-08T16:40:53.666Z,7.50
2022-12-08T16:43:20.793Z,8.20
2022-12-08T16:45:50.271Z,7.60
2022-12-08T16:48:20.644Z,7.85
2022-12-08T16:50:48.727Z,8.13
2022-12-08T16:53:16.774Z,7.88
2022-12-08T16:55:47.367Z,8.02
2022-12-08T16:58:16.403Z,8.25
2022-12-08T17:00:44.721Z,8.82
2022-12-08T17:03:16.455Z,8.50
2022-12-08T17:05:45.729Z,9.68
2022-12-08T17:08:14.170Z,9.48
2022-12-08T17:11:04.902Z,9.75
2022-12-08T17:13:33.088Z,10.23
2022-12-08T17:16:01.917Z,11.10
2022-12-08T17:18:31.353Z,10.55
2022-12-08T17:20:59.800Z,12.00
2022-12-08T17:23:27.905Z,12.45
2022-12-08T17:26:00.081Z,13.50
2022-12-08T17:28:51.900Z,12.52
2022-12-08T17:31:17.672Z,13.30
2022-12-08T17:33:47.962Z,13.48
2022-12-08T17:36:18.065Z,13.23
2022-12-08T17:38:46.410Z,12.70
2022-12-08T17:41:14.480Z,12.77
2022-12-08T17:43:43.006Z,11.77
2022-12-08T17:46:11.229Z,13.00
2022-12-08T17:48:39.280Z,13.57
2022-12-08T17:51:11.879Z,14.30
2022-12-08T17:53:40.852Z,13.88
2022-12-08T17:56:16.280Z,14.68
2022-12-08T17:58:45.633Z,13.90
2022-12-08T18:01:15.767Z,15.13
2022-12-08T18:03:43.856Z,15.15
2022-12-08T18:06:13.896Z,15.27
2022-12-08T18:08:42.472Z,13.93
2022-12-08T18:11:14.455Z,14.55
2022-12-08T18:13:43.071Z,14.10
2022-12-08T18:16:11.411Z,14.38
2022-12-08T18:18:39.478Z,15.73
2022-12-08T18:21:08.356Z,15.20
2022-12-08T18:23:39.396Z,15.13
2022-12-08T18:26:08.959Z,14.25
2022-12-08T18:28:38.150Z,14.70
2022-12-08T18:31:09.848Z,14.68
2022-12-08T18:33:38.174Z,14.55
2022-12-08T18:36:10.560Z,13.68
2022-12-08T18:38:40.479Z,14.60
2022-12-08T18:41:10.371Z,14.40
2022-12-08T18:43:38.918Z,14.40
2022-12-08T18:46:09.482Z,14.27
2022-12-08T18:48:38.485Z,13.90
2022-12-08T18:51:10.951Z,13.82
2022-12-08T18:53:41.210Z,15.13
2022-12-08T18:56:10.648Z,13.38
2022-12-08T18:58:38.741Z,14.25
2022-12-08T19:01:07.086Z,15.30
2022-12-08T19:03:35.205Z,16.02
2022-12-08T19:06:04.396Z,15.43
2022-12-08T19:08:32.526Z,15.05
2022-12-08T19:11:02.026Z,15.30
2022-12-08T19:13:30.503Z,14.48
2022-12-08T19:15:58.646Z,15.25
2022-12-08T19:18:26.693Z,15.15
2022-12-08T19:20:56.889Z,14.18
2022-12-08T19:23:25.044Z,15.00
2022-12-08T19:25:53.104Z,15.32
2022-12-08T19:28:22.614Z,16.13
2022-12-08T19:30:50.750Z,14.25
2022-12-08T19:33:18.983Z,13.93
2022-12-08T19:35:52.217Z,14.30
2022-12-08T19:38:20.960Z,14.75
2022-12-08T19:41:06.448Z,15.65
2022-12-08T19:43:54.156Z,15.35
2022-12-08T19:46:22.345Z,14.00
2022-12-08T19:48:50.525Z,13.55
2022-12-08T19:51:18.598Z,13.10
2022-12-08T19:53:47.898Z,11.63
2022-12-08T19:56:16.167Z,11.45
2022-12-08T19:58:46.511Z,11.30
2022-12-08T20:01:14.737Z,12.38
2022-12-08T20:03:42.897Z,12.48
2022-12-08T20:06:15.586Z,11.50
2022-12-08T20:08:49.063Z,11.13
2022-12-08T20:11:18.938Z,10.82
2022-12-08T20:13:48.532Z,11.93
2022-12-08T20:16:18.110Z,11.15
2022-12-08T20:18:47.876Z,11.80
2022-12-08T20:21:15.945Z,11.65
2022-12-08T20:23:45.470Z,12.45
2022-12-08T20:26:14.511Z,12.68
2022-12-08T20:28:42.613Z,12.75
2022-12-08T20:31:19.421Z,13.60
2022-12-08T20:33:48.056Z,13.95
2022-12-08T20:36:18.804Z,14.70
2022-12-08T20:38:46.930Z,15.15
2022-12-08T20:41:16.720Z,14.60
2022-12-08T20:43:48.928Z,16.20
2022-12-08T20:46:19.556Z,15.52
2022-12-08T20:48:48.425Z,15.23
2022-12-08T20:51:19.031Z,14.23
2022-12-08T20:53:47.902Z,14.18
2022-12-08T20:56:17.133Z,14.20
2022-12-08T20:58:45.455Z,13.55
2022-12-08T21:01:15.394Z,13.43
2022-12-08T21:03:46.656Z,14.73
2022-12-08T21:06:15.196Z,13.43
2022-12-08T21:08:46.037Z,14.30
2022-12-08T21:11:14.012Z,14.90
2022-12-08T21:13:43.172Z,15.02
2022-12-08T21:16:13.900Z,14.55
2022-12-08T21:18:42.555Z,14.52
2022-12-08T21:21:14.300Z,14.32
2022-12-08T21:23:42.953Z,14.30
2022-12-08T21:26:13.098Z,14.38
2022-12-08T21:28:41.605Z,15.15
2022-12-08T21:31:10.375Z,14.93
2022-12-08T21:33:39.251Z,13.90
2022-12-08T21:36:09.846Z,15.82
2022-12-08T21:38:40.853Z,14.88
2022-12-08T21:41:11.951Z,15.35
2022-12-08T21:43:40.802Z,15.82
2022-12-08T21:46:16.231Z,15.23
2022-12-08T21:48:44.662Z,14.77
2022-12-08T21:51:13.021Z,16.85
2022-12-08T21:53:42.727Z,17.85
2022-12-08T21:56:11.710Z,16.77
2022-12-08T21:58:40.257Z,17.60
2022-12-08T22:01:09.425Z,17.80
2022-12-08T22:03:38.661Z,17.83
2022-12-08T22:06:07.817Z,18.50
2022-12-08T22:08:36.853Z,18.45
2022-12-08T22:11:08.113Z,19.30
2022-12-08T22:13:36.991Z,19.67
2022-12-08T22:16:07.573Z,19.65
2022-12-08T22:18:36.681Z,20.88
2022-12-08T22:21:09.776Z,19.67
2022-12-08T22:23:38.448Z,19.70
2022-12-08T22:26:08.776Z,19.70
2022-12-08T22:28:39.003Z,20.08
2022-12-08T22:31:12.091Z,20.40
2022-12-08T22:33:40.916Z,20.38
2022-12-08T22:36:14.953Z,20.00
2022-12-08T22:38:43.048Z,19.15
2022-12-08T22:41:13.275Z,19.85
2022-12-08T22:43:41.974Z,18.65
2022-12-08T22:46:12.278Z,20.48
2022-12-08T22:48:40.731Z,21.13
2022-12-08T22:51:09.405Z,20.52
2022-12-08T22:53:37.841Z,21.40
2022-12-08T22:56:06.908Z,20.42
2022-12-08T22:58:36.921Z,20.05
2022-12-08T23:01:05.748Z,21.77
2022-12-08T23:03:34.693Z,23.40
2022-12-08T23:06:03.108Z,20.98
2022-12-08T23:08:31.314Z,22.70
2022-12-08T23:10:59.358Z,21.88
2022-12-08T23:13:27.696Z,22.48
2022-12-08T23:15:57.158Z,23.60
2022-12-08T23:18:25.621Z,21.52
2022-12-08T23:20:53.997Z,21.27
2022-12-08T23:23:22.015Z,23.02
2022-12-08T23:25:50.103Z,22.13
2022-12-08T23:28:18.192Z,23.42
2022-12-08T23:30:46.496Z,22.70
2022-12-08T23:33:16.256Z,20.73
2022-12-08T23:35:44.552Z,21.67
2022-12-08T23:38:12.574Z,24.42
2022-12-08T23:40:41.111Z,21.58
2022-12-08T23:43:09.211Z,21.50
2022-12-08T23:45:37.364Z,19.88
2022-12-08T23:48:06.170Z,19.75
2022-12-08T23:50:35.849Z,21.00
2022-12-08T23:53:07.093Z,21.00
2022-12-08T23:55:35.400Z,19.95
2022-12-08T23:58:03.817Z,19.27
